sensor_id;sensor_type;location;lat;lon;timestamp;P1;durP1;ratioP1;P2;durP2;ratioP2
1122;SDS011;548;48.778;9.252;2022-09-09T03:43:25;16.60;;;15.60;;
1122;SDS011;548;48.778;9.252;2022-09-09T03:45:53;16.13;;;15.03;;
1122;SDS011;548;48.778;9.252;2022-09-09T03:48:21;17.60;;;16.03;;
1122;SDS011;548;48.778;9.252;2022-09-09T03:50:50;16.83;;;15.73;;
1122;SDS011;548;48.778;9.252;2022-09-09T03:53:18;17.47;;;16.17;;
1122;SDS011;548;48.778;9.252;2022-09-09T03:55:46;16.83;;;15.83;;
1122;SDS011;548;48.778;9.252;2022-09-09T03:58:15;17.17;;;15.87;;
1122;SDS011;548;48.778;9.252;2022-09-09T04:00:47;16.50;;;15.40;;
1122;SDS011;548;48.778;9.252;2022-09-09T04:03:19;16.80;;;15.90;;
1122;SDS011;548;48.778;9.252;2022-09-09T04:05:48;16.23;;;15.23;;
1122;SDS011;548;48.778;9.252;2022-09-09T04:08:14;15.80;;;15.00;;
1122;SDS011;548;48.778;9.252;2022-09-09T04:10:41;15.90;;;14.80;;
1122;SDS011;548;48.778;9.252;2022-09-09T04:13:08;16.00;;;15.13;;
1122;SDS011;548;48.778;9.252;2022-09-09T04:15:34;16.37;;;15.00;;
1122;SDS011;548;48.778;9.252;2022-09-09T04:18:03;16.13;;;14.90;;
1122;SDS011;548;48.778;9.252;2022-09-09T04:20:31;15.87;;;14.90;;
1122;SDS011;548;48.778;9.252;2022-09-09T04:22:58;14.57;;;13.90;;
1122;SDS011;548;48.778;9.252;2022-09-09T04:25:24;15.67;;;14.67;;
1122;SDS011;548;48.778;9.252;2022-09-09T04:27:53;14.50;;;13.90;;
1122;SDS011;548;48.778;9.252;2022-09-09T04:30:20;14.80;;;13.53;;
1122;SDS011;548;48.778;9.252;2022-09-09T04:32:46;13.03;;;12.43;;
1122;SDS011;548;48.778;9.252;2022-09-09T04:35:15;13.60;;;13.00;;
1122;SDS011;548;48.778;9.252;2022-09-09T04:37:41;14.60;;;14.00;;
1122;SDS011;548;48.778;9.252;2022-09-09T04:40:09;14.83;;;13.53;;
1122;SDS011;548;48.778;9.252;2022-09-09T04:42:36;15.90;;;14.80;;
1122;SDS011;548;48.778;9.252;2022-09-09T04:45:04;12.53;;;12.13;;
1122;SDS011;548;48.778;9.252;2022-09-09T04:47:31;15.03;;;14.43;;
1122;SDS011;548;48.778;9.252;2022-09-09T04:50:00;14.00;;;13.37;;
1122;SDS011;548;48.778;9.252;2022-09-09T04:52:28;13.97;;;12.80;;
1122;SDS011;548;48.778;9.252;2022-09-09T04:54:54;15.10;;;14.30;;
1122;SDS011;548;48.778;9.252;2022-09-09T04:57:21;14.60;;;13.90;;
1122;SDS011;548;48.778;9.252;2022-09-09T04:59:48;15.50;;;14.50;;
1122;SDS011;548;48.778;9.252;2022-09-09T05:02:15;16.30;;;15.30;;
1122;SDS011;548;48.778;9.252;2022-09-09T05:04:41;16.47;;;15.57;;
1122;SDS011;548;48.778;9.252;2022-09-09T05:07:08;16.37;;;15.57;;
1122;SDS011;548;48.778;9.252;2022-09-09T05:09:36;15.20;;;14.30;;
1122;SDS011;548;48.778;9.252;2022-09-09T05:12:03;14.33;;;13.53;;
1122;SDS011;548;48.778;9.252;2022-09-09T05:14:30;15.67;;;14.73;;
1122;SDS011;548;48.778;9.252;2022-09-09T05:16:56;15.20;;;14.40;;
1122;SDS011;548;48.778;9.252;2022-09-09T05:19:23;22.40;;;20.93;;
1122;SDS011;548;48.778;9.252;2022-09-09T05:21:50;20.30;;;18.90;;
1122;SDS011;548;48.778;9.252;2022-09-09T05:24:17;23.70;;;21.23;;
1122;SDS011;548;48.778;9.252;2022-09-09T05:26:45;31.70;;;19.87;;
1122;SDS011;548;48.778;9.252;2022-09-09T05:29:11;18.70;;;16.97;;
1122;SDS011;548;48.778;9.252;2022-09-09T05:31:38;29.33;;;16.40;;
1122;SDS011;548;48.778;9.252;2022-09-09T05:34:06;15.57;;;14.00;;
1122;SDS011;548;48.778;9.252;2022-09-09T05:36:33;15.47;;;14.03;;
1122;SDS011;548;48.778;9.252;2022-09-09T05:38:59;16.37;;;15.47;;
1122;SDS011;548;48.778;9.252;2022-09-09T05:41:26;14.20;;;13.30;;
1122;SDS011;548;48.778;9.252;2022-09-09T05:43:55;14.60;;;13.83;;
1122;SDS011;548;48.778;9.252;2022-09-09T05:46:23;15.00;;;14.30;;
1122;SDS011;548;48.778;9.252;2022-09-09T05:48:51;18.30;;;16.60;;
1122;SDS011;548;48.778;9.252;2022-09-09T05:51:19;16.40;;;15.47;;
1122;SDS011;548;48.778;9.252;2022-09-09T05:53:47;19.00;;;17.70;;
1122;SDS011;548;48.778;9.252;2022-09-09T05:56:15;20.50;;;19.00;;
1122;SDS011;548;48.778;9.252;2022-09-09T05:58:43;18.13;;;16.90;;
1122;SDS011;548;48.778;9.252;2022-09-09T06:01:13;16.27;;;15.17;;
1122;SDS011;548;48.778;9.252;2022-09-09T06:03:42;15.20;;;14.30;;
1122;SDS011;548;48.778;9.252;2022-09-09T06:06:11;16.60;;;14.93;;
1122;SDS011;548;48.778;9.252;2022-09-09T06:08:40;15.67;;;14.73;;
1122;SDS011;548;48.778;9.252;2022-09-09T06:11:09;13.23;;;12.43;;
1122;SDS011;548;48.778;9.252;2022-09-09T06:13:38;13.33;;;12.43;;
1122;SDS011;548;48.778;9.252;2022-09-09T06:16:05;13.77;;;12.77;;
1122;SDS011;548;48.778;9.252;2022-09-09T06:18:35;13.03;;;12.20;;
1122;SDS011;548;48.778;9.252;2022-09-09T06:21:02;14.00;;;12.90;;
1122;SDS011;548;48.778;9.252;2022-09-09T06:23:31;13.40;;;12.70;;
1122;SDS011;548;48.778;9.252;2022-09-09T06:26:03;14.47;;;13.17;;
1122;SDS011;548;48.778;9.252;2022-09-09T06:28:31;14.10;;;13.10;;
1122;SDS011;548;48.778;9.252;2022-09-09T06:30:58;14.60;;;13.40;;
1122;SDS011;548;48.778;9.252;2022-09-09T06:33:25;14.03;;;13.10;;
1122;SDS011;548;48.778;9.252;2022-09-09T06:35:54;14.03;;;13.20;;
1122;SDS011;548;48.778;9.252;2022-09-09T06:38:22;14.53;;;13.60;;
1122;SDS011;548;48.778;9.252;2022-09-09T06:40:50;14.90;;;14.03;;
1122;SDS011;548;48.778;9.252;2022-09-09T06:43:19;14.93;;;14.13;;
1122;SDS011;548;48.778;9.252;2022-09-09T06:45:52;15.73;;;14.43;;
1122;SDS011;548;48.778;9.252;2022-09-09T06:48:19;15.67;;;14.40;;
1122;SDS011;548;48.778;9.252;2022-09-09T06:50:46;15.30;;;14.50;;
1122;SDS011;548;48.778;9.252;2022-09-09T06:53:16;16.10;;;15.00;;
1122;SDS011;548;48.778;9.252;2022-09-09T06:55:44;14.93;;;13.90;;
1122;SDS011;548;48.778;9.252;2022-09-09T06:58:11;15.53;;;14.50;;
1122;SDS011;548;48.778;9.252;2022-09-09T07:00:38;13.97;;;13.37;;
1122;SDS011;548;48.778;9.252;2022-09-09T07:03:04;13.47;;;12.80;;
1122;SDS011;548;48.778;9.252;2022-09-09T07:05:31;14.23;;;13.13;;
1122;SDS011;548;48.778;9.252;2022-09-09T07:07:58;13.80;;;13.20;;
1122;SDS011;548;48.778;9.252;2022-09-09T07:10:26;13.00;;;12.47;;
1122;SDS011;548;48.778;9.252;2022-09-09T07:12:53;13.63;;;12.93;;
1122;SDS011;548;48.778;9.252;2022-09-09T07:15:19;13.40;;;12.60;;
1122;SDS011;548;48.778;9.252;2022-09-09T07:17:47;14.57;;;13.43;;
1122;SDS011;548;48.778;9.252;2022-09-09T07:20:14;13.70;;;12.83;;
1122;SDS011;548;48.778;9.252;2022-09-09T07:22:41;12.70;;;11.97;;
1122;SDS011;548;48.778;9.252;2022-09-09T07:25:08;13.50;;;12.90;;
1122;SDS011;548;48.778;9.252;2022-09-09T07:27:36;14.07;;;13.13;;
1122;SDS011;548;48.778;9.252;2022-09-09T07:30:03;22.30;;;13.43;;
1122;SDS011;548;48.778;9.252;2022-09-09T07:32:31;15.43;;;13.00;;
1122;SDS011;548;48.778;9.252;2022-09-09T07:34:58;12.87;;;12.13;;
1122;SDS011;548;48.778;9.252;2022-09-09T07:37:25;13.20;;;12.60;;
1122;SDS011;548;48.778;9.252;2022-09-09T07:39:52;13.17;;;12.50;;
1122;SDS011;548;48.778;9.252;2022-09-09T07:42:18;12.97;;;12.10;;
1122;SDS011;548;48.778;9.252;2022-09-09T07:44:46;12.83;;;12.13;;
1122;SDS011;548;48.778;9.252;2022-09-09T07:47:13;13.60;;;12.93;;
1122;SDS011;548;48.778;9.252;2022-09-09T07:49:40;14.33;;;13.27;;
1122;SDS011;548;48.778;9.252;2022-09-09T07:52:06;14.63;;;13.50;;
1122;SDS011;548;48.778;9.252;2022-09-09T07:54:33;12.80;;;12.20;;
1122;SDS011;548;48.778;9.252;2022-09-09T07:57:00;12.83;;;12.23;;
1122;SDS011;548;48.778;9.252;2022-09-09T07:59:28;13.17;;;12.10;;
1122;SDS011;548;48.778;9.252;2022-09-09T08:01:57;12.67;;;12.07;;
1122;SDS011;548;48.778;9.252;2022-09-09T08:04:24;12.80;;;12.20;;
1122;SDS011;548;48.778;9.252;2022-09-09T08:06:54;13.60;;;12.60;;
1122;SDS011;548;48.778;9.252;2022-09-09T08:09:23;13.07;;;12.40;;
1122;SDS011;548;48.778;9.252;2022-09-09T08:11:52;14.67;;;13.50;;
1122;SDS011;548;48.778;9.252;2022-09-09T08:14:18;12.87;;;12.37;;
1122;SDS011;548;48.778;9.252;2022-09-09T08:16:46;13.03;;;12.43;;
1122;SDS011;548;48.778;9.252;2022-09-09T08:19:15;13.10;;;12.50;;
1122;SDS011;548;48.778;9.252;2022-09-09T08:21:43;13.27;;;12.50;;
1122;SDS011;548;48.778;9.252;2022-09-09T08:24:10;12.77;;;12.27;;
1122;SDS011;548;48.778;9.252;2022-09-09T08:26:39;13.90;;;12.77;;
1122;SDS011;548;48.778;9.252;2022-09-09T08:29:08;13.40;;;12.70;;
1122;SDS011;548;48.778;9.252;2022-09-09T08:31:37;14.33;;;13.43;;
1122;SDS011;548;48.778;9.252;2022-09-09T08:34:05;13.80;;;12.97;;
1122;SDS011;548;48.778;9.252;2022-09-09T08:36:35;12.90;;;12.40;;
1122;SDS011;548;48.778;9.252;2022-09-09T08:39:03;14.87;;;13.77;;
1122;SDS011;548;48.778;9.252;2022-09-09T08:41:35;13.60;;;13.00;;
1122;SDS011;548;48.778;9.252;2022-09-09T08:44:13;13.03;;;12.30;;
1122;SDS011;548;48.778;9.252;2022-09-09T08:46:47;13.97;;;13.17;;
1122;SDS011;548;48.778;9.252;2022-09-09T08:49:27;12.50;;;11.93;;
1122;SDS011;548;48.778;9.252;2022-09-09T08:52:15;14.03;;;13.37;;
1122;SDS011;548;48.778;9.252;2022-09-09T08:54:45;13.70;;;13.10;;
1122;SDS011;548;48.778;9.252;2022-09-09T08:57:14;14.17;;;13.53;;
1122;SDS011;548;48.778;9.252;2022-09-09T08:59:45;13.20;;;12.70;;
1122;SDS011;548;48.778;9.252;2022-09-09T09:02:14;13.23;;;12.63;;
1122;SDS011;548;48.778;9.252;2022-09-09T09:04:50;13.97;;;13.20;;
1122;SDS011;548;48.778;9.252;2022-09-09T09:07:39;12.73;;;12.13;;
1122;SDS011;548;48.778;9.252;2022-09-09T09:10:15;13.60;;;12.87;;
1122;SDS011;548;48.778;9.252;2022-09-09T09:12:51;12.93;;;12.43;;
1122;SDS011;548;48.778;9.252;2022-09-09T09:15:21;13.50;;;12.70;;
1122;SDS011;548;48.778;9.252;2022-09-09T09:17:49;13.53;;;12.93;;
1122;SDS011;548;48.778;9.252;2022-09-09T09:20:18;13.40;;;12.77;;
1122;SDS011;548;48.778;9.252;2022-09-09T09:22:51;12.70;;;12.30;;
1122;SDS011;548;48.778;9.252;2022-09-09T09:25:21;13.73;;;13.20;;
1122;SDS011;548;48.778;9.252;2022-09-09T09:27:52;13.30;;;12.70;;
1122;SDS011;548;48.778;9.252;2022-09-09T09:30:26;13.40;;;12.70;;
1122;SDS011;548;48.778;9.252;2022-09-09T09:33:00;13.30;;;12.80;;
1122;SDS011;548;48.778;9.252;2022-09-09T09:35:31;13.20;;;12.63;;
1122;SDS011;548;48.778;9.252;2022-09-09T09:37:59;13.60;;;12.90;;
1122;SDS011;548;48.778;9.252;2022-09-09T09:40:27;28.00;;;26.10;;
1122;SDS011;548;48.778;9.252;2022-09-09T09:42:57;29.97;;;28.17;;
1122;SDS011;548;48.778;9.252;2022-09-09T09:45:27;31.93;;;30.03;;
1122;SDS011;548;48.778;9.252;2022-09-09T09:47:58;31.90;;;29.70;;
1122;SDS011;548;48.778;9.252;2022-09-09T09:50:27;18.93;;;17.93;;
1122;SDS011;548;48.778;9.252;2022-09-09T09:52:54;14.30;;;13.80;;
1122;SDS011;548;48.778;9.252;2022-09-09T09:55:23;14.90;;;14.20;;
1122;SDS011;548;48.778;9.252;2022-09-09T09:57:51;14.87;;;14.27;;
1122;SDS011;548;48.778;9.252;2022-09-09T10:00:19;12.67;;;12.23;;
1122;SDS011;548;48.778;9.252;2022-09-09T10:02:47;14.20;;;13.70;;
1122;SDS011;548;48.778;9.252;2022-09-09T10:05:18;14.60;;;13.80;;
1122;SDS011;548;48.778;9.252;2022-09-09T10:07:47;14.23;;;13.57;;
1122;SDS011;548;48.778;9.252;2022-09-09T10:10:29;13.70;;;13.20;;
1122;SDS011;548;48.778;9.252;2022-09-09T10:13:15;15.37;;;14.47;;
1122;SDS011;548;48.778;9.252;2022-09-09T10:15:52;14.50;;;13.90;;
1122;SDS011;548;48.778;9.252;2022-09-09T10:18:35;14.83;;;14.27;;
1122;SDS011;548;48.778;9.252;2022-09-09T10:21:07;14.43;;;13.93;;
1122;SDS011;548;48.778;9.252;2022-09-09T10:23:49;14.07;;;13.47;;
1122;SDS011;548;48.778;9.252;2022-09-09T10:26:40;14.43;;;13.80;;
1122;SDS011;548;48.778;9.252;2022-09-09T10:29:23;14.23;;;13.63;;
1122;SDS011;548;48.778;9.252;2022-09-09T10:32:11;14.63;;;14.00;;
1122;SDS011;548;48.778;9.252;2022-09-09T10:34:55;14.13;;;13.53;;
1122;SDS011;548;48.778;9.252;2022-09-09T10:37:30;15.00;;;14.20;;
1122;SDS011;548;48.778;9.252;2022-09-09T10:40:13;15.60;;;14.60;;
1122;SDS011;548;48.778;9.252;2022-09-09T10:42:59;15.60;;;14.90;;
1122;SDS011;548;48.778;9.252;2022-09-09T10:45:40;14.27;;;13.57;;
1122;SDS011;548;48.778;9.252;2022-09-09T10:48:24;13.97;;;13.37;;
1122;SDS011;548;48.778;9.252;2022-09-09T10:51:01;13.90;;;13.30;;
1122;SDS011;548;48.778;9.252;2022-09-09T10:53:43;14.70;;;14.10;;
1122;SDS011;548;48.778;9.252;2022-09-09T10:56:18;14.30;;;13.80;;
1122;SDS011;548;48.778;9.252;2022-09-09T10:58:50;14.80;;;14.30;;
1122;SDS011;548;48.778;9.252;2022-09-09T11:01:24;16.23;;;15.43;;
1122;SDS011;548;48.778;9.252;2022-09-09T11:03:54;13.00;;;12.40;;
1122;SDS011;548;48.778;9.252;2022-09-09T11:06:25;14.07;;;13.43;;
1122;SDS011;548;48.778;9.252;2022-09-09T11:08:57;13.30;;;12.90;;
1122;SDS011;548;48.778;9.252;2022-09-09T11:11:27;13.43;;;12.83;;
1122;SDS011;548;48.778;9.252;2022-09-09T11:14:01;13.93;;;13.43;;
1122;SDS011;548;48.778;9.252;2022-09-09T11:16:35;14.40;;;13.80;;
1122;SDS011;548;48.778;9.252;2022-09-09T11:19:11;13.43;;;12.83;;
1122;SDS011;548;48.778;9.252;2022-09-09T11:21:43;13.10;;;12.33;;
1122;SDS011;548;48.778;9.252;2022-09-09T11:24:13;12.50;;;12.00;;
1122;SDS011;548;48.778;9.252;2022-09-09T11:26:44;13.13;;;12.63;;
1122;SDS011;548;48.778;9.252;2022-09-09T11:29:32;12.40;;;11.70;;
1122;SDS011;548;48.778;9.252;2022-09-09T11:32:27;14.13;;;13.50;;
1122;SDS011;548;48.778;9.252;2022-09-09T11:35:11;12.80;;;12.20;;
1122;SDS011;548;48.778;9.252;2022-09-09T11:37:55;12.20;;;11.60;;
1122;SDS011;548;48.778;9.252;2022-09-09T11:40:43;12.33;;;11.93;;
1122;SDS011;548;48.778;9.252;2022-09-09T11:43:12;11.60;;;11.00;;
1122;SDS011;548;48.778;9.252;2022-09-09T11:45:49;13.50;;;12.90;;
1122;SDS011;548;48.778;9.252;2022-09-09T11:48:26;12.10;;;11.57;;
1122;SDS011;548;48.778;9.252;2022-09-09T11:51:00;12.20;;;11.70;;
1122;SDS011;548;48.778;9.252;2022-09-09T11:53:32;12.07;;;11.67;;
1122;SDS011;548;48.778;9.252;2022-09-09T11:56:06;13.13;;;12.53;;
1122;SDS011;548;48.778;9.252;2022-09-09T11:58:39;11.93;;;11.53;;
1122;SDS011;548;48.778;9.252;2022-09-09T12:01:29;11.63;;;11.10;;
1122;SDS011;548;48.778;9.252;2022-09-09T12:04:05;11.90;;;11.50;;
1122;SDS011;548;48.778;9.252;2022-09-09T12:06:49;12.83;;;12.23;;
1122;SDS011;548;48.778;9.252;2022-09-09T12:09:23;13.20;;;12.30;;
1122;SDS011;548;48.778;9.252;2022-09-09T12:12:04;12.80;;;12.40;;
1122;SDS011;548;48.778;9.252;2022-09-09T12:14:54;13.17;;;12.67;;
1122;SDS011;548;48.778;9.252;2022-09-09T12:17:26;12.13;;;11.73;;
1122;SDS011;548;48.778;9.252;2022-09-09T12:20:02;12.73;;;12.23;;
1122;SDS011;548;48.778;9.252;2022-09-09T12:22:35;12.90;;;12.40;;
1122;SDS011;548;48.778;9.252;2022-09-09T12:25:13;12.80;;;12.40;;
1122;SDS011;548;48.778;9.252;2022-09-09T12:27:52;13.13;;;12.40;;
1122;SDS011;548;48.778;9.252;2022-09-09T12:30:28;11.27;;;10.97;;
1122;SDS011;548;48.778;9.252;2022-09-09T12:33:06;12.93;;;12.53;;
1122;SDS011;548;48.778;9.252;2022-09-09T12:35:37;13.40;;;12.93;;
1122;SDS011;548;48.778;9.252;2022-09-09T12:38:05;13.70;;;13.10;;
1122;SDS011;548;48.778;9.252;2022-09-09T12:40:38;13.50;;;12.83;;
1122;SDS011;548;48.778;9.252;2022-09-09T12:43:16;13.70;;;13.20;;
1122;SDS011;548;48.778;9.252;2022-09-09T12:45:45;13.17;;;12.77;;
1122;SDS011;548;48.778;9.252;2022-09-09T12:48:16;12.60;;;12.20;;
1122;SDS011;548;48.778;9.252;2022-09-09T12:50:47;13.60;;;13.10;;
1122;SDS011;548;48.778;9.252;2022-09-09T12:53:19;13.87;;;13.37;;
1122;SDS011;548;48.778;9.252;2022-09-09T12:55:51;13.30;;;12.90;;
1122;SDS011;548;48.778;9.252;2022-09-09T12:58:22;13.30;;;12.80;;
1122;SDS011;548;48.778;9.252;2022-09-09T13:00:50;12.70;;;12.00;;
1122;SDS011;548;48.778;9.252;2022-09-09T13:03:20;12.60;;;12.10;;
1122;SDS011;548;48.778;9.252;2022-09-09T13:05:47;11.93;;;11.50;;
1122;SDS011;548;48.778;9.252;2022-09-09T13:08:15;12.53;;;12.13;;
1122;SDS011;548;48.778;9.252;2022-09-09T13:10:46;13.50;;;12.60;;
1122;SDS011;548;48.778;9.252;2022-09-09T13:13:16;12.77;;;12.37;;
1122;SDS011;548;48.778;9.252;2022-09-09T13:15:49;12.67;;;12.27;;
1122;SDS011;548;48.778;9.252;2022-09-09T13:18:20;12.47;;;12.07;;
1122;SDS011;548;48.778;9.252;2022-09-09T13:20:49;11.67;;;11.27;;
1122;SDS011;548;48.778;9.252;2022-09-09T13:23:17;12.20;;;11.80;;
1122;SDS011;548;48.778;9.252;2022-09-09T13:25:52;12.53;;;12.03;;
1122;SDS011;548;48.778;9.252;2022-09-09T13:28:22;11.43;;;11.03;;
1122;SDS011;548;48.778;9.252;2022-09-09T13:30:56;12.00;;;11.60;;
1122;SDS011;548;48.778;9.252;2022-09-09T13:33:30;11.70;;;11.30;;
1122;SDS011;548;48.778;9.252;2022-09-09T13:35:59;12.27;;;11.77;;
1122;SDS011;548;48.778;9.252;2022-09-09T13:38:29;13.30;;;12.80;;
1122;SDS011;548;48.778;9.252;2022-09-09T13:41:00;12.77;;;12.37;;
1122;SDS011;548;48.778;9.252;2022-09-09T13:43:29;13.30;;;12.70;;
1122;SDS011;548;48.778;9.252;2022-09-09T13:45:58;12.50;;;11.63;;
1122;SDS011;548;48.778;9.252;2022-09-09T13:48:27;11.80;;;11.30;;
1122;SDS011;548;48.778;9.252;2022-09-09T13:50:57;12.70;;;12.23;;
1122;SDS011;548;48.778;9.252;2022-09-09T13:53:25;13.00;;;12.43;;
1122;SDS011;548;48.778;9.252;2022-09-09T13:55:53;12.70;;;12.30;;
1122;SDS011;548;48.778;9.252;2022-09-09T13:58:21;13.00;;;12.23;;
1122;SDS011;548;48.778;9.252;2022-09-09T14:00:50;12.43;;;11.90;;
1122;SDS011;548;48.778;9.252;2022-09-09T14:03:17;12.43;;;11.93;;
1122;SDS011;548;48.778;9.252;2022-09-09T14:05:45;12.70;;;12.30;;
1122;SDS011;548;48.778;9.252;2022-09-09T14:08:15;12.10;;;11.60;;
1122;SDS011;548;48.778;9.252;2022-09-09T14:10:47;12.70;;;12.20;;
1122;SDS011;548;48.778;9.252;2022-09-09T14:13:14;12.60;;;12.00;;
1122;SDS011;548;48.778;9.252;2022-09-09T14:15:41;11.20;;;10.90;;
1122;SDS011;548;48.778;9.252;2022-09-09T14:18:09;11.47;;;10.97;;
1122;SDS011;548;48.778;9.252;2022-09-09T14:20:37;11.73;;;11.33;;
1122;SDS011;548;48.778;9.252;2022-09-09T14:23:05;12.80;;;12.10;;
1122;SDS011;548;48.778;9.252;2022-09-09T14:25:32;12.60;;;12.10;;
1122;SDS011;548;48.778;9.252;2022-09-09T14:27:59;13.10;;;12.37;;
1122;SDS011;548;48.778;9.252;2022-09-09T14:30:27;12.60;;;12.10;;
1122;SDS011;548;48.778;9.252;2022-09-09T14:32:53;12.60;;;12.10;;
1122;SDS011;548;48.778;9.252;2022-09-09T14:35:20;13.00;;;12.40;;
1122;SDS011;548;48.778;9.252;2022-09-09T14:37:47;12.40;;;11.60;;
1122;SDS011;548;48.778;9.252;2022-09-09T14:40:15;11.23;;;10.93;;
1122;SDS011;548;48.778;9.252;2022-09-09T14:42:42;12.50;;;12.00;;
1122;SDS011;548;48.778;9.252;2022-09-09T14:45:10;13.17;;;12.67;;
1122;SDS011;548;48.778;9.252;2022-09-09T14:47:37;13.10;;;12.60;;
1122;SDS011;548;48.778;9.252;2022-09-09T14:50:04;12.57;;;11.97;;
1122;SDS011;548;48.778;9.252;2022-09-09T14:52:33;12.23;;;11.83;;
1122;SDS011;548;48.778;9.252;2022-09-09T14:55:00;12.10;;;11.70;;
1122;SDS011;548;48.778;9.252;2022-09-09T14:57:28;11.93;;;11.53;;
1122;SDS011;548;48.778;9.252;2022-09-09T14:59:55;12.73;;;12.27;;
1122;SDS011;548;48.778;9.252;2022-09-09T15:02:21;12.60;;;12.10;;
1122;SDS011;548;48.778;9.252;2022-09-09T15:04:48;13.13;;;12.53;;
1122;SDS011;548;48.778;9.252;2022-09-09T15:07:20;12.53;;;12.07;;
1122;SDS011;548;48.778;9.252;2022-09-09T15:09:47;12.10;;;11.60;;
1122;SDS011;548;48.778;9.252;2022-09-09T15:12:14;12.03;;;11.63;;
1122;SDS011;548;48.778;9.252;2022-09-09T15:14:45;12.97;;;12.50;;
1122;SDS011;548;48.778;9.252;2022-09-09T15:17:12;11.40;;;11.10;;
1122;SDS011;548;48.778;9.252;2022-09-09T15:19:39;12.13;;;11.53;;
1122;SDS011;548;48.778;9.252;2022-09-09T15:22:07;12.40;;;12.00;;
1122;SDS011;548;48.778;9.252;2022-09-09T15:24:34;12.40;;;11.87;;
1122;SDS011;548;48.778;9.252;2022-09-09T15:27:01;12.87;;;12.43;;
1122;SDS011;548;48.778;9.252;2022-09-09T15:29:28;12.07;;;11.57;;
1122;SDS011;548;48.778;9.252;2022-09-09T15:31:56;13.83;;;13.10;;
1122;SDS011;548;48.778;9.252;2022-09-09T15:34:23;13.17;;;12.67;;
1122;SDS011;548;48.778;9.252;2022-09-09T15:36:50;11.43;;;10.93;;
1122;SDS011;548;48.778;9.252;2022-09-09T15:39:17;10.87;;;10.23;;
1122;SDS011;548;48.778;9.252;2022-09-09T15:41:44;11.90;;;11.40;;
1122;SDS011;548;48.778;9.252;2022-09-09T15:44:12;12.30;;;11.80;;
1122;SDS011;548;48.778;9.252;2022-09-09T15:46:41;13.50;;;13.00;;
1122;SDS011;548;48.778;9.252;2022-09-09T15:49:11;12.10;;;11.60;;
1122;SDS011;548;48.778;9.252;2022-09-09T15:51:40;13.20;;;12.70;;
1122;SDS011;548;48.778;9.252;2022-09-09T15:54:08;13.30;;;12.80;;
1122;SDS011;548;48.778;9.252;2022-09-09T15:56:37;11.23;;;10.63;;
1122;SDS011;548;48.778;9.252;2022-09-09T15:59:04;12.60;;;12.20;;
1122;SDS011;548;48.778;9.252;2022-09-09T16:01:31;11.80;;;11.40;;
1122;SDS011;548;48.778;9.252;2022-09-09T16:03:58;11.83;;;11.43;;
1122;SDS011;548;48.778;9.252;2022-09-09T16:06:27;12.70;;;12.20;;
1122;SDS011;548;48.778;9.252;2022-09-09T16:08:55;12.37;;;11.87;;
1122;SDS011;548;48.778;9.252;2022-09-09T16:11:25;13.37;;;12.97;;
1122;SDS011;548;48.778;9.252;2022-09-09T16:13:54;12.47;;;12.07;;
1122;SDS011;548;48.778;9.252;2022-09-09T16:16:21;11.43;;;10.83;;
1122;SDS011;548;48.778;9.252;2022-09-09T16:18:50;12.10;;;11.70;;
1122;SDS011;548;48.778;9.252;2022-09-09T16:21:18;12.67;;;12.10;;
1122;SDS011;548;48.778;9.252;2022-09-09T16:23:49;12.40;;;11.90;;
1122;SDS011;548;48.778;9.252;2022-09-09T16:26:17;12.40;;;12.00;;
1122;SDS011;548;48.778;9.252;2022-09-09T16:28:44;13.60;;;12.97;;
1122;SDS011;548;48.778;9.252;2022-09-09T16:31:12;12.80;;;12.20;;
1122;SDS011;548;48.778;9.252;2022-09-09T16:33:41;12.10;;;11.60;;
1122;SDS011;548;48.778;9.252;2022-09-09T16:36:08;12.60;;;12.00;;
1122;SDS011;548;48.778;9.252;2022-09-09T16:38:37;12.33;;;11.57;;
1122;SDS011;548;48.778;9.252;2022-09-09T16:41:06;12.70;;;11.70;;
1122;SDS011;548;48.778;9.252;2022-09-09T16:43:33;12.80;;;12.30;;
1122;SDS011;548;48.778;9.252;2022-09-09T16:46:01;12.37;;;11.77;;
1122;SDS011;548;48.778;9.252;2022-09-09T16:48:30;12.00;;;11.43;;
1122;SDS011;548;48.778;9.252;2022-09-09T16:51:00;11.80;;;11.30;;
1122;SDS011;548;48.778;9.252;2022-09-09T16:53:28;11.70;;;11.20;;
1122;SDS011;548;48.778;9.252;2022-09-09T16:55:55;11.57;;;11.03;;
1122;SDS011;548;48.778;9.252;2022-09-09T16:58:23;11.30;;;11.00;;
1122;SDS011;548;48.778;9.252;2022-09-09T17:00:50;11.50;;;11.03;;
1122;SDS011;548;48.778;9.252;2022-09-09T17:03:17;11.40;;;11.00;;
1122;SDS011;548;48.778;9.252;2022-09-09T17:05:43;11.33;;;10.80;;
1122;SDS011;548;48.778;9.252;2022-09-09T17:08:10;11.10;;;10.80;;
1122;SDS011;548;48.778;9.252;2022-09-09T17:10:40;11.80;;;11.30;;
1122;SDS011;548;48.778;9.252;2022-09-09T17:13:07;11.50;;;10.90;;
1122;SDS011;548;48.778;9.252;2022-09-09T17:15:39;11.00;;;10.50;;
1122;SDS011;548;48.778;9.252;2022-09-09T17:18:07;11.20;;;10.80;;
1122;SDS011;548;48.778;9.252;2022-09-09T17:20:35;12.10;;;11.53;;
1122;SDS011;548;48.778;9.252;2022-09-09T17:23:02;11.70;;;11.30;;
1122;SDS011;548;48.778;9.252;2022-09-09T17:25:29;11.60;;;11.20;;
1122;SDS011;548;48.778;9.252;2022-09-09T17:27:56;11.30;;;10.90;;
1122;SDS011;548;48.778;9.252;2022-09-09T17:30:23;11.00;;;10.60;;
1122;SDS011;548;48.778;9.252;2022-09-09T17:32:51;11.03;;;10.63;;
1122;SDS011;548;48.778;9.252;2022-09-09T17:35:18;11.43;;;11.03;;
1122;SDS011;548;48.778;9.252;2022-09-09T17:37:45;11.00;;;10.60;;
1122;SDS011;548;48.778;9.252;2022-09-09T17:40:11;11.07;;;10.67;;
1122;SDS011;548;48.778;9.252;2022-09-09T17:42:39;11.00;;;10.60;;
1122;SDS011;548;48.778;9.252;2022-09-09T17:45:07;11.63;;;11.20;;
1122;SDS011;548;48.778;9.252;2022-09-09T17:47:34;11.13;;;10.73;;
1122;SDS011;548;48.778;9.252;2022-09-09T17:50:03;11.30;;;10.90;;
1122;SDS011;548;48.778;9.252;2022-09-09T17:52:31;11.87;;;11.40;;
1122;SDS011;548;48.778;9.252;2022-09-09T17:54:58;11.40;;;11.00;;
1122;SDS011;548;48.778;9.252;2022-09-09T17:57:25;11.90;;;11.30;;
1122;SDS011;548;48.778;9.252;2022-09-09T17:59:52;11.40;;;10.80;;
1122;SDS011;548;48.778;9.252;2022-09-09T18:02:19;10.50;;;10.10;;
1122;SDS011;548;48.778;9.252;2022-09-09T18:04:46;10.60;;;10.20;;
1122;SDS011;548;48.778;9.252;2022-09-09T18:07:14;11.07;;;10.57;;
1122;SDS011;548;48.778;9.252;2022-09-09T18:09:41;11.63;;;11.13;;
1122;SDS011;548;48.778;9.252;2022-09-09T18:12:08;11.50;;;11.10;;
1122;SDS011;548;48.778;9.252;2022-09-09T18:14:35;10.80;;;10.40;;
1122;SDS011;548;48.778;9.252;2022-09-09T18:17:04;11.23;;;10.73;;
1122;SDS011;548;48.778;9.252;2022-09-09T18:19:33;11.00;;;10.60;;
1122;SDS011;548;48.778;9.252;2022-09-09T18:22:00;10.77;;;10.33;;
1122;SDS011;548;48.778;9.252;2022-09-09T18:24:31;10.77;;;10.17;;
1122;SDS011;548;48.778;9.252;2022-09-09T18:26:58;10.93;;;10.43;;
1122;SDS011;548;48.778;9.252;2022-09-09T18:29:24;10.70;;;10.20;;
1122;SDS011;548;48.778;9.252;2022-09-09T18:31:52;10.17;;;9.77;;
1122;SDS011;548;48.778;9.252;2022-09-09T18:34:19;10.80;;;10.50;;
1122;SDS011;548;48.778;9.252;2022-09-09T18:36:47;10.60;;;10.30;;
1122;SDS011;548;48.778;9.252;2022-09-09T18:39:17;9.90;;;9.60;;
1122;SDS011;548;48.778;9.252;2022-09-09T18:41:47;10.17;;;9.87;;
1122;SDS011;548;48.778;9.252;2022-09-09T18:44:17;10.63;;;10.23;;
1122;SDS011;548;48.778;9.252;2022-09-09T18:46:46;10.50;;;10.00;;
1122;SDS011;548;48.778;9.252;2022-09-09T18:49:13;9.80;;;9.40;;
1122;SDS011;548;48.778;9.252;2022-09-09T18:51:42;10.90;;;10.30;;
1122;SDS011;548;48.778;9.252;2022-09-09T18:54:11;10.67;;;10.23;;
1122;SDS011;548;48.778;9.252;2022-09-09T18:56:40;10.70;;;10.30;;
1122;SDS011;548;48.778;9.252;2022-09-09T18:59:09;10.80;;;10.33;;
1122;SDS011;548;48.778;9.252;2022-09-09T19:01:38;10.90;;;10.30;;